sensor_id;sensor_type;location;lat;lon;timestamp;P1;durP1;ratioP1;P2;durP2;ratioP2
48875;SDS011;34689;51.644;5.618;2022-10-17T00:01:48;2.05;;;1.33;;
48875;SDS011;34689;51.644;5.618;2022-10-17T00:04:14;1.27;;;0.98;;
48875;SDS011;34689;51.644;5.618;2022-10-17T00:06:40;1.23;;;0.98;;
48875;SDS011;34689;51.644;5.618;2022-10-17T00:09:08;2.08;;;1.20;;
48875;SDS011;34689;51.644;5.618;2022-10-17T00:11:34;2.53;;;1.42;;
48875;SDS011;34689;51.644;5.618;2022-10-17T00:14:00;2.45;;;1.20;;
48875;SDS011;34689;51.644;5.618;2022-10-17T00:16:27;2.72;;;1.13;;
48875;SDS011;34689;51.644;5.618;2022-10-17T00:18:55;1.58;;;0.88;;
48875;SDS011;34689;51.644;5.618;2022-10-17T00:21:22;1.38;;;1.08;;
48875;SDS011;34689;51.644;5.618;2022-10-17T00:23:48;1.75;;;1.20;;
48875;SDS011;34689;51.644;5.618;2022-10-17T00:26:14;1.30;;;0.90;;
48875;SDS011;34689;51.644;5.618;2022-10-17T00:28:41;1.95;;;0.98;;
48875;SDS011;34689;51.644;5.618;2022-10-17T00:31:10;2.17;;;1.40;;
48875;SDS011;34689;51.644;5.618;2022-10-17T00:33:35;2.67;;;1.05;;
48875;SDS011;34689;51.644;5.618;2022-10-17T00:38:35;2.42;;;1.20;;
48875;SDS011;34689;51.644;5.618;2022-10-17T00:41:01;1.90;;;1.45;;
48875;SDS011;34689;51.644;5.618;2022-10-17T00:43:27;2.53;;;1.50;;
48875;SDS011;34689;51.644;5.618;2022-10-17T00:45:53;2.08;;;1.30;;
48875;SDS011;34689;51.644;5.618;2022-10-17T00:48:19;1.45;;;1.10;;
48875;SDS011;34689;51.644;5.618;2022-10-17T00:50:47;1.98;;;1.45;;
48875;SDS011;34689;51.644;5.618;2022-10-17T00:53:15;2.75;;;1.20;;
48875;SDS011;34689;51.644;5.618;2022-10-17T00:55:47;1.70;;;1.38;;
48875;SDS011;34689;51.644;5.618;2022-10-17T00:58:15;1.90;;;1.27;;
48875;SDS011;34689;51.644;5.618;2022-10-17T01:00:42;2.63;;;0.98;;
48875;SDS011;34689;51.644;5.618;2022-10-17T01:03:09;2.42;;;1.38;;
48875;SDS011;34689;51.644;5.618;2022-10-17T01:05:34;1.65;;;1.33;;
48875;SDS011;34689;51.644;5.618;2022-10-17T01:08:00;1.90;;;1.40;;
48875;SDS011;34689;51.644;5.618;2022-10-17T01:10:29;1.25;;;1.00;;
48875;SDS011;34689;51.644;5.618;2022-10-17T01:23:49;2.13;;;1.23;;
48875;SDS011;34689;51.644;5.618;2022-10-17T01:29:23;1.92;;;1.15;;
48875;SDS011;34689;51.644;5.618;2022-10-17T01:32:00;1.67;;;1.38;;
48875;SDS011;34689;51.644;5.618;2022-10-17T01:34:33;3.05;;;1.60;;
48875;SDS011;34689;51.644;5.618;2022-10-17T01:39:51;1.35;;;1.13;;
48875;SDS011;34689;51.644;5.618;2022-10-17T01:42:33;1.73;;;1.30;;
48875;SDS011;34689;51.644;5.618;2022-10-17T01:45:20;2.05;;;1.40;;
48875;SDS011;34689;51.644;5.618;2022-10-17T01:47:53;1.83;;;1.10;;
48875;SDS011;34689;51.644;5.618;2022-10-17T01:50:23;3.10;;;1.90;;
48875;SDS011;34689;51.644;5.618;2022-10-17T01:55:28;2.28;;;1.40;;
48875;SDS011;34689;51.644;5.618;2022-10-17T01:58:07;2.25;;;1.67;;
48875;SDS011;34689;51.644;5.618;2022-10-17T02:00:37;2.45;;;1.20;;
48875;SDS011;34689;51.644;5.618;2022-10-17T02:03:06;3.15;;;1.88;;
48875;SDS011;34689;51.644;5.618;2022-10-17T02:05:37;1.90;;;1.38;;
48875;SDS011;34689;51.644;5.618;2022-10-17T02:08:05;2.40;;;1.75;;
48875;SDS011;34689;51.644;5.618;2022-10-17T02:10:34;1.83;;;1.10;;
48875;SDS011;34689;51.644;5.618;2022-10-17T02:25:13;2.50;;;1.48;;
48875;SDS011;34689;51.644;5.618;2022-10-17T02:27:47;1.42;;;1.30;;
48875;SDS011;34689;51.644;5.618;2022-10-17T02:30:27;2.45;;;1.85;;
48875;SDS011;34689;51.644;5.618;2022-10-17T02:32:58;1.73;;;1.25;;
48875;SDS011;34689;51.644;5.618;2022-10-17T02:35:32;1.95;;;1.55;;
48875;SDS011;34689;51.644;5.618;2022-10-17T02:38:03;2.13;;;1.17;;
48875;SDS011;34689;51.644;5.618;2022-10-17T02:40:31;3.08;;;1.42;;
48875;SDS011;34689;51.644;5.618;2022-10-17T02:42:58;2.35;;;1.40;;
48875;SDS011;34689;51.644;5.618;2022-10-17T02:45:27;2.00;;;1.50;;
48875;SDS011;34689;51.644;5.618;2022-10-17T02:50:20;1.90;;;1.23;;
48875;SDS011;34689;51.644;5.618;2022-10-17T02:52:54;3.60;;;1.48;;
48875;SDS011;34689;51.644;5.618;2022-10-17T02:57:55;2.58;;;1.40;;
48875;SDS011;34689;51.644;5.618;2022-10-17T03:00:25;4.22;;;1.65;;
48875;SDS011;34689;51.644;5.618;2022-10-17T03:02:53;2.38;;;1.20;;
48875;SDS011;34689;51.644;5.618;2022-10-17T03:05:22;2.03;;;1.27;;
48875;SDS011;34689;51.644;5.618;2022-10-17T03:07:50;1.67;;;1.20;;
48875;SDS011;34689;51.644;5.618;2022-10-17T03:10:17;1.90;;;1.30;;
48875;SDS011;34689;51.644;5.618;2022-10-17T03:12:42;2.22;;;1.70;;
48875;SDS011;34689;51.644;5.618;2022-10-17T03:15:08;2.70;;;1.88;;
48875;SDS011;34689;51.644;5.618;2022-10-17T03:17:35;1.73;;;1.13;;
48875;SDS011;34689;51.644;5.618;2022-10-17T03:20:00;2.30;;;1.50;;
48875;SDS011;34689;51.644;5.618;2022-10-17T03:22:26;3.53;;;1.85;;
48875;SDS011;34689;51.644;5.618;2022-10-17T03:24:52;2.25;;;1.60;;
48875;SDS011;34689;51.644;5.618;2022-10-17T03:27:18;2.83;;;1.60;;
48875;SDS011;34689;51.644;5.618;2022-10-17T03:29:43;1.95;;;1.60;;
48875;SDS011;34689;51.644;5.618;2022-10-17T03:32:09;1.70;;;1.38;;
48875;SDS011;34689;51.644;5.618;2022-10-17T03:34:35;2.05;;;1.48;;
48875;SDS011;34689;51.644;5.618;2022-10-17T03:37:00;2.22;;;1.45;;
48875;SDS011;34689;51.644;5.618;2022-10-17T03:39:26;2.33;;;1.73;;
48875;SDS011;34689;51.644;5.618;2022-10-17T03:41:52;2.65;;;1.88;;
48875;SDS011;34689;51.644;5.618;2022-10-17T03:44:17;1.98;;;1.38;;
48875;SDS011;34689;51.644;5.618;2022-10-17T03:46:43;2.08;;;1.65;;
48875;SDS011;34689;51.644;5.618;2022-10-17T03:49:09;3.25;;;1.40;;
48875;SDS011;34689;51.644;5.618;2022-10-17T03:51:37;2.55;;;1.83;;
48875;SDS011;34689;51.644;5.618;2022-10-17T03:54:03;2.00;;;1.50;;
48875;SDS011;34689;51.644;5.618;2022-10-17T03:56:28;3.20;;;1.75;;
48875;SDS011;34689;51.644;5.618;2022-10-17T03:58:54;1.63;;;1.40;;
48875;SDS011;34689;51.644;5.618;2022-10-17T04:01:21;2.35;;;1.50;;
48875;SDS011;34689;51.644;5.618;2022-10-17T04:03:50;2.85;;;1.50;;
48875;SDS011;34689;51.644;5.618;2022-10-17T04:06:18;5.72;;;1.70;;
48875;SDS011;34689;51.644;5.618;2022-10-17T04:08:44;2.63;;;1.83;;
48875;SDS011;34689;51.644;5.618;2022-10-17T04:11:10;1.70;;;1.27;;
48875;SDS011;34689;51.644;5.618;2022-10-17T04:13:39;1.95;;;1.58;;
48875;SDS011;34689;51.644;5.618;2022-10-17T04:16:06;2.63;;;1.42;;
48875;SDS011;34689;51.644;5.618;2022-10-17T04:18:34;2.05;;;1.60;;
48875;SDS011;34689;51.644;5.618;2022-10-17T04:21:03;2.80;;;1.63;;
48875;SDS011;34689;51.644;5.618;2022-10-17T04:23:30;2.17;;;1.40;;
48875;SDS011;34689;51.644;5.618;2022-10-17T04:25:56;2.28;;;1.55;;
48875;SDS011;34689;51.644;5.618;2022-10-17T04:28:23;2.10;;;1.50;;
48875;SDS011;34689;51.644;5.618;2022-10-17T04:33:21;2.30;;;1.83;;
48875;SDS011;34689;51.644;5.618;2022-10-17T04:35:54;1.70;;;1.50;;
48875;SDS011;34689;51.644;5.618;2022-10-17T04:38:20;2.10;;;1.58;;
48875;SDS011;34689;51.644;5.618;2022-10-17T04:40:46;2.60;;;1.77;;
48875;SDS011;34689;51.644;5.618;2022-10-17T04:43:12;2.03;;;1.35;;
48875;SDS011;34689;51.644;5.618;2022-10-17T04:45:37;3.92;;;1.42;;
48875;SDS011;34689;51.644;5.618;2022-10-17T04:48:03;1.60;;;1.38;;
48875;SDS011;34689;51.644;5.618;2022-10-17T04:50:29;2.35;;;1.80;;
48875;SDS011;34689;51.644;5.618;2022-10-17T04:52:54;1.65;;;1.25;;
48875;SDS011;34689;51.644;5.618;2022-10-17T04:55:20;2.88;;;1.55;;
48875;SDS011;34689;51.644;5.618;2022-10-17T04:57:46;1.77;;;1.30;;
48875;SDS011;34689;51.644;5.618;2022-10-17T05:00:12;1.73;;;1.33;;
48875;SDS011;34689;51.644;5.618;2022-10-17T05:02:38;3.00;;;2.15;;
48875;SDS011;34689;51.644;5.618;2022-10-17T05:05:03;1.65;;;1.48;;
48875;SDS011;34689;51.644;5.618;2022-10-17T05:07:29;2.17;;;1.48;;
48875;SDS011;34689;51.644;5.618;2022-10-17T05:09:55;1.88;;;1.38;;
48875;SDS011;34689;51.644;5.618;2022-10-17T05:12:22;1.70;;;1.42;;
48875;SDS011;34689;51.644;5.618;2022-10-17T05:14:48;3.47;;;2.15;;
48875;SDS011;34689;51.644;5.618;2022-10-17T05:17:14;3.08;;;1.75;;
48875;SDS011;34689;51.644;5.618;2022-10-17T05:19:42;2.20;;;1.40;;
48875;SDS011;34689;51.644;5.618;2022-10-17T05:22:07;1.65;;;1.17;;
48875;SDS011;34689;51.644;5.618;2022-10-17T05:24:33;2.10;;;1.35;;
48875;SDS011;34689;51.644;5.618;2022-10-17T05:26:59;2.45;;;1.33;;
48875;SDS011;34689;51.644;5.618;2022-10-17T05:29:24;2.70;;;1.50;;
48875;SDS011;34689;51.644;5.618;2022-10-17T05:31:50;2.20;;;1.50;;
48875;SDS011;34689;51.644;5.618;2022-10-17T05:34:16;2.35;;;1.73;;
48875;SDS011;34689;51.644;5.618;2022-10-17T05:36:42;2.38;;;1.27;;
48875;SDS011;34689;51.644;5.618;2022-10-17T05:39:07;2.17;;;1.40;;
48875;SDS011;34689;51.644;5.618;2022-10-17T05:41:36;2.28;;;1.35;;
48875;SDS011;34689;51.644;5.618;2022-10-17T05:44:01;1.77;;;1.13;;
48875;SDS011;34689;51.644;5.618;2022-10-17T05:46:27;1.45;;;1.13;;
48875;SDS011;34689;51.644;5.618;2022-10-17T05:48:55;1.60;;;1.17;;
48875;SDS011;34689;51.644;5.618;2022-10-17T05:51:20;1.60;;;1.20;;
48875;SDS011;34689;51.644;5.618;2022-10-17T05:53:46;2.10;;;1.30;;
48875;SDS011;34689;51.644;5.618;2022-10-17T05:56:12;1.58;;;1.15;;
48875;SDS011;34689;51.644;5.618;2022-10-17T05:58:39;3.55;;;1.27;;
48875;SDS011;34689;51.644;5.618;2022-10-17T06:01:06;3.35;;;1.38;;
48875;SDS011;34689;51.644;5.618;2022-10-17T06:03:33;1.73;;;1.30;;
48875;SDS011;34689;51.644;5.618;2022-10-17T06:06:06;1.45;;;0.80;;
48875;SDS011;34689;51.644;5.618;2022-10-17T06:08:33;4.05;;;1.30;;
48875;SDS011;34689;51.644;5.618;2022-10-17T06:10:59;0.82;;;0.82;;
48875;SDS011;34689;51.644;5.618;2022-10-17T06:13:25;2.13;;;1.45;;
48875;SDS011;34689;51.644;5.618;2022-10-17T06:15:51;1.75;;;1.35;;
48875;SDS011;34689;51.644;5.618;2022-10-17T06:18:16;1.90;;;1.15;;
48875;SDS011;34689;51.644;5.618;2022-10-17T06:20:42;2.08;;;1.77;;
48875;SDS011;34689;51.644;5.618;2022-10-17T06:23:08;1.75;;;1.20;;
48875;SDS011;34689;51.644;5.618;2022-10-17T06:25:36;1.50;;;0.90;;
48875;SDS011;34689;51.644;5.618;2022-10-17T06:28:02;2.58;;;1.85;;
48875;SDS011;34689;51.644;5.618;2022-10-17T06:30:28;4.53;;;1.50;;
48875;SDS011;34689;51.644;5.618;2022-10-17T06:32:54;1.50;;;1.30;;
48875;SDS011;34689;51.644;5.618;2022-10-17T06:35:19;2.15;;;1.33;;
48875;SDS011;34689;51.644;5.618;2022-10-17T06:37:45;1.80;;;1.38;;
48875;SDS011;34689;51.644;5.618;2022-10-17T06:40:11;2.30;;;1.65;;
48875;SDS011;34689;51.644;5.618;2022-10-17T06:42:39;2.22;;;1.77;;
48875;SDS011;34689;51.644;5.618;2022-10-17T06:45:05;2.95;;;1.52;;
48875;SDS011;34689;51.644;5.618;2022-10-17T06:47:31;2.63;;;1.33;;
48875;SDS011;34689;51.644;5.618;2022-10-17T06:50:00;1.80;;;1.20;;
48875;SDS011;34689;51.644;5.618;2022-10-17T06:52:25;1.75;;;1.60;;
48875;SDS011;34689;51.644;5.618;2022-10-17T06:54:51;1.70;;;1.20;;
48875;SDS011;34689;51.644;5.618;2022-10-17T06:57:17;1.88;;;1.15;;
48875;SDS011;34689;51.644;5.618;2022-10-17T06:59:42;1.48;;;1.10;;
48875;SDS011;34689;51.644;5.618;2022-10-17T07:02:09;1.33;;;1.10;;
48875;SDS011;34689;51.644;5.618;2022-10-17T07:04:35;0.80;;;0.70;;
48875;SDS011;34689;51.644;5.618;2022-10-17T07:07:01;1.10;;;0.68;;
48875;SDS011;34689;51.644;5.618;2022-10-17T07:09:27;1.25;;;0.98;;
48875;SDS011;34689;51.644;5.618;2022-10-17T07:11:57;0.98;;;0.70;;
48875;SDS011;34689;51.644;5.618;2022-10-17T07:14:23;1.17;;;0.80;;
48875;SDS011;34689;51.644;5.618;2022-10-17T07:16:59;1.40;;;1.25;;
48875;SDS011;34689;51.644;5.618;2022-10-17T07:19:25;1.10;;;0.90;;
48875;SDS011;34689;51.644;5.618;2022-10-17T07:21:51;1.20;;;0.90;;
48875;SDS011;34689;51.644;5.618;2022-10-17T07:24:17;1.25;;;0.93;;
48875;SDS011;34689;51.644;5.618;2022-10-17T07:26:45;1.27;;;0.90;;
48875;SDS011;34689;51.644;5.618;2022-10-17T07:29:11;2.42;;;1.00;;
48875;SDS011;34689;51.644;5.618;2022-10-17T07:31:37;1.38;;;0.85;;
48875;SDS011;34689;51.644;5.618;2022-10-17T07:34:02;1.00;;;0.90;;
48875;SDS011;34689;51.644;5.618;2022-10-17T07:36:28;1.58;;;1.10;;
48875;SDS011;34689;51.644;5.618;2022-10-17T07:38:54;0.85;;;0.73;;
48875;SDS011;34689;51.644;5.618;2022-10-17T07:41:20;1.10;;;0.90;;
48875;SDS011;34689;51.644;5.618;2022-10-17T07:43:46;1.40;;;1.23;;
48875;SDS011;34689;51.644;5.618;2022-10-17T07:46:12;1.70;;;1.27;;
48875;SDS011;34689;51.644;5.618;2022-10-17T07:48:39;1.63;;;1.10;;
48875;SDS011;34689;51.644;5.618;2022-10-17T07:51:06;1.40;;;1.10;;
48875;SDS011;34689;51.644;5.618;2022-10-17T07:53:34;1.73;;;1.52;;
48875;SDS011;34689;51.644;5.618;2022-10-17T07:56:04;4.38;;;1.30;;
48875;SDS011;34689;51.644;5.618;2022-10-17T07:58:31;2.15;;;1.25;;
48875;SDS011;34689;51.644;5.618;2022-10-17T08:01:00;1.85;;;1.55;;
48875;SDS011;34689;51.644;5.618;2022-10-17T08:03:27;1.80;;;1.45;;
48875;SDS011;34689;51.644;5.618;2022-10-17T08:05:56;2.58;;;1.77;;
48875;SDS011;34689;51.644;5.618;2022-10-17T08:08:23;2.08;;;1.40;;
48875;SDS011;34689;51.644;5.618;2022-10-17T08:10:48;2.13;;;1.60;;
48875;SDS011;34689;51.644;5.618;2022-10-17T08:13:14;2.38;;;1.63;;
48875;SDS011;34689;51.644;5.618;2022-10-17T08:15:40;1.50;;;1.10;;
48875;SDS011;34689;51.644;5.618;2022-10-17T08:18:05;1.17;;;1.02;;
48875;SDS011;34689;51.644;5.618;2022-10-17T08:20:31;1.85;;;1.13;;
48875;SDS011;34689;51.644;5.618;2022-10-17T08:22:59;1.70;;;1.00;;
48875;SDS011;34689;51.644;5.618;2022-10-17T08:25:25;2.08;;;1.60;;
48875;SDS011;34689;51.644;5.618;2022-10-17T08:27:50;1.85;;;1.55;;
48875;SDS011;34689;51.644;5.618;2022-10-17T08:30:16;2.45;;;1.55;;
48875;SDS011;34689;51.644;5.618;2022-10-17T08:32:42;2.58;;;1.27;;
48875;SDS011;34689;51.644;5.618;2022-10-17T08:35:10;1.75;;;1.10;;
48875;SDS011;34689;51.644;5.618;2022-10-17T08:37:36;2.67;;;1.08;;
48875;SDS011;34689;51.644;5.618;2022-10-17T08:40:02;3.15;;;1.40;;
48875;SDS011;34689;51.644;5.618;2022-10-17T08:42:47;1.48;;;1.10;;
48875;SDS011;34689;51.644;5.618;2022-10-17T08:48:17;3.63;;;1.63;;
48875;SDS011;34689;51.644;5.618;2022-10-17T08:56:44;4.72;;;1.25;;
48875;SDS011;34689;51.644;5.618;2022-10-17T08:59:13;1.92;;;1.13;;
48875;SDS011;34689;51.644;5.618;2022-10-17T09:02:33;1.30;;;1.20;;
48875;SDS011;34689;51.644;5.618;2022-10-17T09:04:58;2.97;;;1.58;;
48875;SDS011;34689;51.644;5.618;2022-10-17T09:18:01;1.38;;;1.17;;
48875;SDS011;34689;51.644;5.618;2022-10-17T09:20:41;2.42;;;1.55;;
48875;SDS011;34689;51.644;5.618;2022-10-17T09:25:47;1.20;;;0.80;;
48875;SDS011;34689;51.644;5.618;2022-10-17T09:28:22;1.75;;;1.00;;
48875;SDS011;34689;51.644;5.618;2022-10-17T09:30:55;2.15;;;1.15;;
48875;SDS011;34689;51.644;5.618;2022-10-17T09:33:25;2.55;;;1.05;;
48875;SDS011;34689;51.644;5.618;2022-10-17T09:36:09;2.10;;;1.23;;
48875;SDS011;34689;51.644;5.618;2022-10-17T09:38:57;1.90;;;1.33;;
48875;SDS011;34689;51.644;5.618;2022-10-17T09:44:37;1.20;;;0.85;;
48875;SDS011;34689;51.644;5.618;2022-10-17T09:50:09;1.05;;;0.70;;
48875;SDS011;34689;51.644;5.618;2022-10-17T09:52:44;0.68;;;0.60;;
48875;SDS011;34689;51.644;5.618;2022-10-17T09:58:06;0.93;;;0.60;;
48875;SDS011;34689;51.644;5.618;2022-10-17T10:00:34;1.20;;;1.00;;
48875;SDS011;34689;51.644;5.618;2022-10-17T10:05:33;1.73;;;1.30;;
48875;SDS011;34689;51.644;5.618;2022-10-17T10:08:04;1.10;;;1.00;;
48875;SDS011;34689;51.644;5.618;2022-10-17T10:10:40;1.20;;;0.82;;
48875;SDS011;34689;51.644;5.618;2022-10-17T10:15:43;2.15;;;1.30;;
48875;SDS011;34689;51.644;5.618;2022-10-17T10:18:27;0.77;;;0.77;;
48875;SDS011;34689;51.644;5.618;2022-10-17T10:21:02;1.80;;;1.27;;
48875;SDS011;34689;51.644;5.618;2022-10-17T10:23:31;0.93;;;0.77;;
48875;SDS011;34689;51.644;5.618;2022-10-17T10:26:01;1.33;;;0.70;;
48875;SDS011;34689;51.644;5.618;2022-10-17T10:28:30;1.77;;;1.00;;
48875;SDS011;34689;51.644;5.618;2022-10-17T10:31:04;1.30;;;1.10;;
48875;SDS011;34689;51.644;5.618;2022-10-17T10:33:32;1.70;;;1.25;;
48875;SDS011;34689;51.644;5.618;2022-10-17T10:36:01;1.65;;;1.30;;
48875;SDS011;34689;51.644;5.618;2022-10-17T10:38:30;2.15;;;1.02;;
48875;SDS011;34689;51.644;5.618;2022-10-17T10:41:07;1.02;;;0.82;;
48875;SDS011;34689;51.644;5.618;2022-10-17T10:46:05;0.77;;;0.70;;
48875;SDS011;34689;51.644;5.618;2022-10-17T10:48:49;1.05;;;0.65;;
48875;SDS011;34689;51.644;5.618;2022-10-17T10:51:18;1.67;;;1.10;;
48875;SDS011;34689;51.644;5.618;2022-10-17T10:56:48;1.88;;;1.35;;
48875;SDS011;34689;51.644;5.618;2022-10-17T10:59:19;2.03;;;0.93;;
48875;SDS011;34689;51.644;5.618;2022-10-17T11:05:00;1.75;;;1.20;;
48875;SDS011;34689;51.644;5.618;2022-10-17T11:07:37;2.40;;;1.55;;
48875;SDS011;34689;51.644;5.618;2022-10-17T11:10:13;1.25;;;1.00;;
48875;SDS011;34689;51.644;5.618;2022-10-17T11:13:16;2.88;;;1.33;;
48875;SDS011;34689;51.644;5.618;2022-10-17T11:15:52;0.88;;;0.68;;
48875;SDS011;34689;51.644;5.618;2022-10-17T11:18:25;1.85;;;1.05;;
48875;SDS011;34689;51.644;5.618;2022-10-17T11:26:27;1.20;;;1.02;;
48875;SDS011;34689;51.644;5.618;2022-10-17T11:28:56;1.50;;;0.90;;
48875;SDS011;34689;51.644;5.618;2022-10-17T11:31:35;1.52;;;1.20;;
48875;SDS011;34689;51.644;5.618;2022-10-17T11:34:24;1.48;;;1.25;;
48875;SDS011;34689;51.644;5.618;2022-10-17T11:36:58;2.30;;;1.52;;
48875;SDS011;34689;51.644;5.618;2022-10-17T11:39:52;1.35;;;1.15;;
48875;SDS011;34689;51.644;5.618;2022-10-17T11:42:26;2.00;;;1.15;;
48875;SDS011;34689;51.644;5.618;2022-10-17T11:45:07;1.27;;;1.02;;
48875;SDS011;34689;51.644;5.618;2022-10-17T11:47:57;1.38;;;1.15;;
48875;SDS011;34689;51.644;5.618;2022-10-17T11:52:59;1.55;;;0.75;;
48875;SDS011;34689;51.644;5.618;2022-10-17T11:55:30;0.90;;;0.70;;
48875;SDS011;34689;51.644;5.618;2022-10-17T12:01:08;0.82;;;0.55;;
48875;SDS011;34689;51.644;5.618;2022-10-17T12:06:38;1.38;;;0.50;;
48875;SDS011;34689;51.644;5.618;2022-10-17T12:12:23;1.25;;;0.90;;
48875;SDS011;34689;51.644;5.618;2022-10-17T12:15:25;2.03;;;0.95;;
48875;SDS011;34689;51.644;5.618;2022-10-17T12:20:34;0.93;;;0.50;;
48875;SDS011;34689;51.644;5.618;2022-10-17T12:25:47;0.93;;;0.80;;
48875;SDS011;34689;51.644;5.618;2022-10-17T12:46:50;1.92;;;1.50;;
48875;SDS011;34689;51.644;5.618;2022-10-17T12:57:40;2.65;;;1.75;;
48875;SDS011;34689;51.644;5.618;2022-10-17T13:00:13;1.65;;;1.23;;
48875;SDS011;34689;51.644;5.618;2022-10-17T13:02:46;3.05;;;1.23;;
48875;SDS011;34689;51.644;5.618;2022-10-17T13:05:33;3.08;;;2.08;;
48875;SDS011;34689;51.644;5.618;2022-10-17T13:08:01;3.63;;;1.85;;
48875;SDS011;34689;51.644;5.618;2022-10-17T13:10:31;2.00;;;1.42;;
48875;SDS011;34689;51.644;5.618;2022-10-17T13:13:07;2.47;;;1.77;;
48875;SDS011;34689;51.644;5.618;2022-10-17T13:15:49;2.97;;;2.03;;
48875;SDS011;34689;51.644;5.618;2022-10-17T13:18:17;2.45;;;1.88;;
48875;SDS011;34689;51.644;5.618;2022-10-17T13:23:25;3.28;;;1.95;;
48875;SDS011;34689;51.644;5.618;2022-10-17T13:26:05;3.58;;;2.47;;
48875;SDS011;34689;51.644;5.618;2022-10-17T13:28:36;2.30;;;1.77;;
48875;SDS011;34689;51.644;5.618;2022-10-17T13:31:02;3.22;;;2.22;;
48875;SDS011;34689;51.644;5.618;2022-10-17T13:33:30;3.45;;;2.58;;
48875;SDS011;34689;51.644;5.618;2022-10-17T13:36:03;3.90;;;2.15;;
48875;SDS011;34689;51.644;5.618;2022-10-17T13:38:32;5.25;;;2.72;;
48875;SDS011;34689;51.644;5.618;2022-10-17T13:41:00;4.60;;;2.63;;
48875;SDS011;34689;51.644;5.618;2022-10-17T13:43:27;4.43;;;3.45;;
48875;SDS011;34689;51.644;5.618;2022-10-17T13:45:56;3.22;;;2.40;;
48875;SDS011;34689;51.644;5.618;2022-10-17T13:48:29;3.47;;;2.55;;
48875;SDS011;34689;51.644;5.618;2022-10-17T13:50:59;3.58;;;2.80;;
48875;SDS011;34689;51.644;5.618;2022-10-17T13:53:30;3.28;;;1.92;;
48875;SDS011;34689;51.644;5.618;2022-10-17T13:56:04;5.63;;;2.80;;
48875;SDS011;34689;51.644;5.618;2022-10-17T13:58:51;3.10;;;2.00;;
48875;SDS011;34689;51.644;5.618;2022-10-17T14:01:25;2.25;;;1.80;;
48875;SDS011;34689;51.644;5.618;2022-10-17T14:03:54;2.92;;;1.88;;
48875;SDS011;34689;51.644;5.618;2022-10-17T14:06:21;3.97;;;2.33;;
48875;SDS011;34689;51.644;5.618;2022-10-17T14:11:43;2.75;;;1.83;;
48875;SDS011;34689;51.644;5.618;2022-10-17T14:14:18;2.72;;;1.55;;
48875;SDS011;34689;51.644;5.618;2022-10-17T14:16:48;2.95;;;2.03;;
48875;SDS011;34689;51.644;5.618;2022-10-17T14:19:24;2.95;;;1.70;;
48875;SDS011;34689;51.644;5.618;2022-10-17T14:24:41;2.03;;;1.50;;
48875;SDS011;34689;51.644;5.618;2022-10-17T14:29:55;2.30;;;1.40;;
48875;SDS011;34689;51.644;5.618;2022-10-17T14:32:31;2.83;;;2.08;;
48875;SDS011;34689;51.644;5.618;2022-10-17T14:34:59;2.97;;;2.20;;
48875;SDS011;34689;51.644;5.618;2022-10-17T14:37:38;2.03;;;1.73;;
48875;SDS011;34689;51.644;5.618;2022-10-17T14:40:19;2.15;;;1.95;;
48875;SDS011;34689;51.644;5.618;2022-10-17T14:42:53;2.08;;;1.67;;
48875;SDS011;34689;51.644;5.618;2022-10-17T14:45:31;2.78;;;2.13;;
48875;SDS011;34689;51.644;5.618;2022-10-17T14:50:39;2.70;;;1.58;;
48875;SDS011;34689;51.644;5.618;2022-10-17T14:53:27;1.80;;;1.50;;
48875;SDS011;34689;51.644;5.618;2022-10-17T14:55:53;2.55;;;1.95;;
48875;SDS011;34689;51.644;5.618;2022-10-17T14:58:25;4.30;;;2.35;;
48875;SDS011;34689;51.644;5.618;2022-10-17T15:00:55;2.60;;;1.95;;
48875;SDS011;34689;51.644;5.618;2022-10-17T15:03:21;1.90;;;1.35;;
48875;SDS011;34689;51.644;5.618;2022-10-17T15:05:48;2.22;;;1.60;;
48875;SDS011;34689;51.644;5.618;2022-10-17T15:08:15;1.63;;;1.35;;
48875;SDS011;34689;51.644;5.618;2022-10-17T15:10:43;3.00;;;1.60;;
48875;SDS011;34689;51.644;5.618;2022-10-17T15:13:10;1.50;;;1.30;;
48875;SDS011;34689;51.644;5.618;2022-10-17T15:15:37;1.90;;;1.40;;
48875;SDS011;34689;51.644;5.618;2022-10-17T15:18:04;1.85;;;1.45;;
48875;SDS011;34689;51.644;5.618;2022-10-17T15:20:30;1.75;;;1.20;;
48875;SDS011;34689;51.644;5.618;2022-10-17T15:23:00;1.48;;;0.95;;
48875;SDS011;34689;51.644;5.618;2022-10-17T15:25:26;1.88;;;1.50;;
48875;SDS011;34689;51.644;5.618;2022-10-17T15:27:54;1.40;;;1.15;;
48875;SDS011;34689;51.644;5.618;2022-10-17T15:32:53;2.72;;;1.60;;
48875;SDS011;34689;51.644;5.618;2022-10-17T15:35:19;1.90;;;1.58;;
48875;SDS011;34689;51.644;5.618;2022-10-17T15:37:45;2.38;;;1.90;;
48875;SDS011;34689;51.644;5.618;2022-10-17T15:40:13;5.63;;;2.33;;
48875;SDS011;34689;51.644;5.618;2022-10-17T15:42:41;2.80;;;1.80;;
48875;SDS011;34689;51.644;5.618;2022-10-17T15:45:08;2.33;;;1.50;;
48875;SDS011;34689;51.644;5.618;2022-10-17T15:47:42;3.20;;;2.03;;
48875;SDS011;34689;51.644;5.618;2022-10-17T15:50:13;3.65;;;2.47;;
48875;SDS011;34689;51.644;5.618;2022-10-17T15:52:39;3.65;;;2.13;;
48875;SDS011;34689;51.644;5.618;2022-10-17T15:55:06;2.38;;;1.73;;
48875;SDS011;34689;51.644;5.618;2022-10-17T15:57:35;2.55;;;2.00;;
48875;SDS011;34689;51.644;5.618;2022-10-17T16:00:03;2.58;;;1.90;;
48875;SDS011;34689;51.644;5.618;2022-10-17T16:02:31;3.95;;;2.50;;
48875;SDS011;34689;51.644;5.618;2022-10-17T16:04:57;2.67;;;2.05;;
48875;SDS011;34689;51.644;5.618;2022-10-17T16:07:23;3.45;;;2.75;;
48875;SDS011;34689;51.644;5.618;2022-10-17T16:09:50;3.08;;;2.45;;
48875;SDS011;34689;51.644;5.618;2022-10-17T16:12:16;3.67;;;2.63;;
48875;SDS011;34689;51.644;5.618;2022-10-17T16:14:51;3.65;;;3.00;;
48875;SDS011;34689;51.644;5.618;2022-10-17T16:17:20;4.60;;;2.78;;
48875;SDS011;34689;51.644;5.618;2022-10-17T16:19:46;4.32;;;3.03;;
48875;SDS011;34689;51.644;5.618;2022-10-17T16:25:20;2.92;;;2.17;;
48875;SDS011;34689;51.644;5.618;2022-10-17T16:27:51;3.80;;;2.67;;
48875;SDS011;34689;51.644;5.618;2022-10-17T16:30:18;2.47;;;2.00;;
48875;SDS011;34689;51.644;5.618;2022-10-17T16:32:47;2.83;;;2.13;;
48875;SDS011;34689;51.644;5.618;2022-10-17T16:35:19;2.67;;;1.80;;
48875;SDS011;34689;51.644;5.618;2022-10-17T16:37:46;3.28;;;2.28;;
48875;SDS011;34689;51.644;5.618;2022-10-17T16:40:15;2.63;;;2.40;;
48875;SDS011;34689;51.644;5.618;2022-10-17T16:42:41;3.42;;;2.60;;
48875;SDS011;34689;51.644;5.618;2022-10-17T16:45:07;2.53;;;2.20;;
48875;SDS011;34689;51.644;5.618;2022-10-17T16:47:35;2.60;;;2.00;;
48875;SDS011;34689;51.644;5.618;2022-10-17T16:50:00;3.13;;;2.22;;
48875;SDS011;34689;51.644;5.618;2022-10-17T16:52:26;2.47;;;2.05;;
48875;SDS011;34689;51.644;5.618;2022-10-17T16:54:52;2.72;;;2.05;;
48875;SDS011;34689;51.644;5.618;2022-10-17T16:57:18;3.40;;;2.42;;
48875;SDS011;34689;51.644;5.618;2022-10-17T16:59:47;2.50;;;2.05;;
48875;SDS011;34689;51.644;5.618;2022-10-17T17:02:16;2.97;;;2.23;;
48875;SDS011;34689;51.644;5.618;2022-10-17T17:04:42;4.13;;;2.08;;
48875;SDS011;34689;51.644;5.618;2022-10-17T17:07:08;2.75;;;1.90;;
48875;SDS011;34689;51.644;5.618;2022-10-17T17:09:36;2.78;;;2.10;;
48875;SDS011;34689;51.644;5.618;2022-10-17T17:12:02;2.83;;;2.00;;
48875;SDS011;34689;51.644;5.618;2022-10-17T17:14:28;3.50;;;2.55;;
48875;SDS011;34689;51.644;5.618;2022-10-17T17:16:54;2.60;;;2.00;;
48875;SDS011;34689;51.644;5.618;2022-10-17T17:19:22;3.67;;;2.58;;
48875;SDS011;34689;51.644;5.618;2022-10-17T17:21:48;3.47;;;2.53;;
48875;SDS011;34689;51.644;5.618;2022-10-17T17:24:16;3.60;;;2.35;;
48875;SDS011;34689;51.644;5.618;2022-10-17T17:26:45;4.00;;;2.83;;
48875;SDS011;34689;51.644;5.618;2022-10-17T17:29:17;5.78;;;2.83;;
48875;SDS011;34689;51.644;5.618;2022-10-17T17:31:42;4.18;;;2.72;;
48875;SDS011;34689;51.644;5.618;2022-10-17T17:34:08;4.80;;;3.05;;
48875;SDS011;34689;51.644;5.618;2022-10-17T17:36:35;4.15;;;2.58;;